Observations for PRESTWICK CIV NAVY, United Kingdom (EGPK)

EGPK 211750Z VRB03KT 5000 -SHRA FEW006 SCT014 04/03 Q0998   
EGPK 211720Z VRB03KT 5000 -SHRA FEW012 SCT020 03/02 Q0998   
EGPK 211650Z VRB03KT 5000 -SHRA FEW008 SCT012 03/02 Q0998   
EGPK 211620Z 17006KT 5000 -SHRA FEW007 SCT011 BKN015 03/02 Q0999
EGPK 211550Z VRB03KT 8000 -SHRA SCT018 03/01 Q0999  
EGPK 211520Z 14006KT 9000 -SHRA FEW010 SCT019 03/01 Q0999   
EGPK 211450Z 15008KT 9999 -SHRA FEW008 SCT020 03/01 Q1000   
EGPK 211420Z 15008KT 9999 -SHRA FEW010 SCT020 03/01 Q1001   
EGPK 211350Z 14005KT 7000 -SHRA FEW008 BKN020 03/01 Q1002   
EGPK 211320Z VRB03KT 7000 -SHRASN FEW006 BKN014 02/00 Q1003 
EGPK 211250Z VRB03KT 7000 -SHRASN FEW006 BKN014 02/00 Q1004 
EGPK 211220Z 15008KT 120V190 6000 -SHRASN FEW006 BKN014 02/00 Q1005 
EGPK 211150Z 14014KT 8000 -SHRA FEW012 BKN018 02/00 Q1004   
EGPK 211120Z 14011KT 6000 -SHRA SCT010 BKN014 02/00 Q1005   
EGPK 211050Z 14008G18KT 6000 -RASN BKN013 02/00 Q1006   
EGPK 211020Z 12004KT 7000 -RA FEW010 BKN020 02/M00 Q1007
EGPK 210950Z 14008KT 7000 -SHRASN FEW013 SCT020 02/M01 Q1008
EGPK 210920Z 15013KT 9000 VCSH FEW013 SCT020 02/M01 Q1008   
EGPK 210850Z 15009KT 9999 FEW020 02/M01 Q1008   
EGPK 210820Z 13005KT 9999 FEW020 02/M02 Q1008   
EGPK 210750Z 13003KT 9999 FEW020 01/M01 Q1008   
EGPK 210720Z 13005KT 9999 -SHSN FEW010 SCT025 01/M02 Q1009  
EGPK 210650Z 12002KT 9999 FEW010 SCT025 01/M02 Q1009
EGPK 210620Z VRB02KT 9999 FEW010 SCT025 M00/M02 Q1010   
EGPK 210550Z 00000KT 9999 SCT025 M00/M02 Q1010  
EGPK 210450Z 10002KT 9999 FEW025 M01/M03 Q1010  
EGPK 210350Z 00000KT 9999 FEW030 M01/M03 Q1011  
EGPK 210250Z 11003KT 9999 FEW030 M01/M03 Q1011  
EGPK 210150Z 00000KT 9999 FEW035 M02/M03 Q1011  
EGPK 210050Z 00000KT 9999 FEW035 M02/M03 Q1011  
EGPK 202350Z 00000KT 9999 FEW035 M02/M03 Q1011  
EGPK 202320Z 09003KT 9999 FEW030 M02/M03 Q1011  
EGPK 202250Z 13002KT 9999 FEW030 M02/M03 Q1011  
EGPK 202220Z 00000KT 9999 FEW025 M02/M03 Q1010  
EGPK 202150Z 00000KT 9999 FEW025 M02/M03 Q1010  
EGPK 202120Z 00000KT 9999 FEW025 M02/M03 Q1009  
EGPK 202050Z 00000KT 9999 FEW025 M01/M02 Q1009  
EGPK 202020Z 00000KT 9999 FEW020 M02/M03 Q1008  
EGPK 201950Z 00000KT 9999 FEW020 M01/M03 Q1008  
EGPK 201920Z 00000KT 9999 FEW020 M01/M02 Q1008  
EGPK 201850Z 06003KT 9999 FEW019 00/M02 Q1007   
EGPK 201820Z 04002KT 9999 FEW019 01/M01 Q1006   
EGPK 201750Z VRB02KT 9999 FEW019 00/M01 Q1006   
EGPK 201720Z 33003KT 9999 FEW018 01/M01 Q1005